createdAt,value
2019-05-03T00:01:03.922Z,64.10
2019-05-03T00:03:33.992Z,64.40
2019-05-03T00:06:06.916Z,63.20
2019-05-03T00:08:37.008Z,63.30
2019-05-03T00:11:07.170Z,63.60
2019-05-03T00:13:37.248Z,63.80
2019-05-03T00:16:08.992Z,64.00
2019-05-03T00:18:39.092Z,64.10
2019-05-03T00:21:09.130Z,64.60
2019-05-03T00:23:39.195Z,65.70
2019-05-03T00:26:09.232Z,66.10
2019-05-03T00:28:39.266Z,67.40
2019-05-03T00:31:09.275Z,72.60
2019-05-03T00:33:42.166Z,74.60
2019-05-03T00:36:19.500Z,78.80
2019-05-03T00:38:52.464Z,80.20
2019-05-03T00:41:22.500Z,82.70
2019-05-03T00:43:52.611Z,83.60
2019-05-03T00:46:22.588Z,85.40
2019-05-03T00:48:53.711Z,84.80
2019-05-03T00:51:23.740Z,86.00
2019-05-03T00:53:53.824Z,86.40
2019-05-03T00:56:23.803Z,87.40
2019-05-03T00:58:55.534Z,88.80
2019-05-03T01:01:25.637Z,87.70
2019-05-03T01:03:55.643Z,88.00
2019-05-03T01:06:25.766Z,87.70
2019-05-03T01:08:55.838Z,87.70
2019-05-03T01:11:25.891Z,87.70
2019-05-03T01:13:55.903Z,87.70
2019-05-03T01:16:26.107Z,87.90
2019-05-03T01:18:56.154Z,87.80
2019-05-03T01:21:26.271Z,87.60
2019-05-03T01:23:56.311Z,87.00
2019-05-03T01:26:26.324Z,87.00
2019-05-03T01:28:56.295Z,87.70
2019-05-03T01:31:26.403Z,89.00
2019-05-03T01:33:56.371Z,88.60
2019-05-03T01:36:26.479Z,88.80
2019-05-03T01:38:56.627Z,89.70
2019-05-03T01:41:26.654Z,89.70
2019-05-03T01:43:56.676Z,89.80
2019-05-03T01:46:26.787Z,90.20
2019-05-03T01:49:07.480Z,89.80
2019-05-03T01:51:39.242Z,88.80
2019-05-03T01:54:09.243Z,89.20
2019-05-03T01:56:39.308Z,89.30
2019-05-03T01:59:09.235Z,89.00
2019-05-03T02:01:47.064Z,89.00
2019-05-03T02:04:18.708Z,89.20
2019-05-03T02:06:48.887Z,89.00
2019-05-03T02:09:18.904Z,89.20
2019-05-03T02:11:49.007Z,89.70
2019-05-03T02:14:19.123Z,89.20
2019-05-03T02:16:49.204Z,89.30
2019-05-03T02:19:19.239Z,89.30
2019-05-03T02:21:49.315Z,89.70
2019-05-03T02:24:19.639Z,90.00
2019-05-03T02:26:49.679Z,90.10
2019-05-03T02:29:21.821Z,90.10
2019-05-03T02:31:53.464Z,90.30
2019-05-03T02:34:23.949Z,90.50
2019-05-03T02:36:54.204Z,90.90
2019-05-03T02:39:24.210Z,90.60
2019-05-03T02:42:16.082Z,88.00
2019-05-03T02:44:46.243Z,88.70
2019-05-03T02:47:35.571Z,89.70
2019-05-03T02:50:08.251Z,90.20
2019-05-03T02:52:38.390Z,89.20
2019-05-03T02:55:09.752Z,90.30
2019-05-03T02:57:40.802Z,90.30
2019-05-03T03:00:15.961Z,90.20
2019-05-03T03:02:45.665Z,89.90
2019-05-03T03:05:16.631Z,89.30
2019-05-03T03:07:49.879Z,88.30
2019-05-03T03:10:19.955Z,88.10
2019-05-03T03:12:55.118Z,87.90
2019-05-03T03:15:25.709Z,87.40
2019-05-03T03:17:58.832Z,87.90
2019-05-03T03:20:32.148Z,87.80
2019-05-03T03:23:06.097Z,88.40
2019-05-03T03:25:39.139Z,89.30
2019-05-03T03:28:12.456Z,89.00
2019-05-03T03:30:57.696Z,89.40
2019-05-03T03:33:28.551Z,89.50
2019-05-03T03:36:29.388Z,89.70
2019-05-03T03:38:31.100Z,90.10
2019-05-03T03:41:05.593Z,90.30
2019-05-03T03:43:35.491Z,90.40
2019-05-03T03:46:06.488Z,90.40
2019-05-03T03:48:38.865Z,90.10
2019-05-03T03:51:11.819Z,90.00
2019-05-03T03:53:46.545Z,90.70
2019-05-03T03:56:19.639Z,90.70
2019-05-03T03:58:49.861Z,90.70
2019-05-03T04:01:20.213Z,90.90
2019-05-03T04:03:50.328Z,91.00
2019-05-03T04:06:22.046Z,91.00
2019-05-03T04:08:52.583Z,91.10
2019-05-03T04:11:22.702Z,90.80
2019-05-03T04:13:52.784Z,91.20
2019-05-03T04:16:30.797Z,91.00
2019-05-03T04:19:02.522Z,91.10
2019-05-03T04:21:32.572Z,91.20
2019-05-03T04:24:02.651Z,90.80
2019-05-03T04:26:35.626Z,91.00
2019-05-03T04:29:05.507Z,91.00
2019-05-03T04:31:36.853Z,90.90
2019-05-03T04:34:08.001Z,90.70
2019-05-03T04:36:38.059Z,90.30
2019-05-03T04:39:08.243Z,90.50
2019-05-03T04:41:38.379Z,90.60
2019-05-03T04:44:08.497Z,90.70
2019-05-03T04:46:38.513Z,90.70
2019-05-03T04:49:08.657Z,90.90
2019-05-03T04:51:38.855Z,90.40
2019-05-03T04:54:26.663Z,90.70
2019-05-03T04:56:57.920Z,90.60
2019-05-03T04:59:27.981Z,90.30
2019-05-03T05:01:58.071Z,90.80
2019-05-03T05:04:28.196Z,91.00
2019-05-03T05:06:58.329Z,91.00
2019-05-03T05:09:28.423Z,90.70
2019-05-03T05:12:07.696Z,90.30
2019-05-03T05:14:37.808Z,90.20
2019-05-03T05:17:09.305Z,90.10
2019-05-03T05:19:44.587Z,89.90
2019-05-03T05:22:16.249Z,88.30
2019-05-03T05:24:49.298Z,88.10
2019-05-03T05:27:25.572Z,87.80
2019-05-03T05:29:56.641Z,87.40
2019-05-03T05:32:26.871Z,87.30
2019-05-03T05:34:57.057Z,86.60
2019-05-03T05:37:27.195Z,86.10
2019-05-03T05:39:57.214Z,85.70
2019-05-03T05:42:27.328Z,85.40
2019-05-03T05:44:57.454Z,86.70
2019-05-03T05:47:29.144Z,87.40
2019-05-03T05:50:00.763Z,85.90
2019-05-03T05:52:30.852Z,85.70
2019-05-03T05:55:04.540Z,86.10
2019-05-03T05:57:35.979Z,86.10
2019-05-03T06:00:09.032Z,86.90
2019-05-03T06:02:39.079Z,86.40
2019-05-03T06:05:09.250Z,85.00
2019-05-03T06:07:40.938Z,84.10
2019-05-03T06:10:14.698Z,86.00
2019-05-03T06:12:46.219Z,86.00
2019-05-03T06:15:36.471Z,86.50
2019-05-03T06:18:14.651Z,86.60
2019-05-03T06:21:04.508Z,84.00
2019-05-03T06:23:38.523Z,84.20
2019-05-03T06:26:26.535Z,84.80
2019-05-03T06:28:57.180Z,85.10
2019-05-03T06:31:38.698Z,84.60
2019-05-03T06:34:08.779Z,85.60
2019-05-03T06:36:39.947Z,86.00
2019-05-03T06:39:10.065Z,84.60
2019-05-03T06:41:40.072Z,84.00
2019-05-03T06:44:14.306Z,84.00
2019-05-03T06:46:51.124Z,83.20
2019-05-03T06:49:21.240Z,82.10
2019-05-03T06:51:51.256Z,82.40
2019-05-03T06:54:26.894Z,80.40
2019-05-03T06:56:55.336Z,79.50
2019-05-03T06:59:26.530Z,81.30
2019-05-03T07:02:01.088Z,80.50
2019-05-03T07:04:34.585Z,79.50
2019-05-03T07:07:08.975Z,79.70
2019-05-03T07:09:46.454Z,79.80
2019-05-03T07:12:16.632Z,78.00
2019-05-03T07:14:46.592Z,78.50
2019-05-03T07:17:16.676Z,77.60
2019-05-03T07:19:46.771Z,77.00
2019-05-03T07:22:16.925Z,76.70
2019-05-03T07:24:47.120Z,76.00
2019-05-03T07:27:17.188Z,76.80
2019-05-03T07:29:47.321Z,76.30
2019-05-03T07:32:17.395Z,75.80
2019-05-03T07:34:47.529Z,75.60
2019-05-03T07:37:17.645Z,75.60
2019-05-03T07:39:47.688Z,74.70
2019-05-03T07:42:17.848Z,74.90
2019-05-03T07:44:47.863Z,74.70
2019-05-03T07:47:18.952Z,73.90
2019-05-03T07:49:49.043Z,76.00
2019-05-03T07:52:19.089Z,75.60
2019-05-03T07:54:49.172Z,75.50
2019-05-03T07:57:37.194Z,72.90
2019-05-03T08:00:09.308Z,74.00
2019-05-03T08:02:39.419Z,72.50
2019-05-03T08:05:09.776Z,74.70
2019-05-03T08:07:39.793Z,74.50
2019-05-03T08:10:10.112Z,74.10
2019-05-03T08:12:40.539Z,74.30
2019-05-03T08:15:10.659Z,75.70
2019-05-03T08:17:40.900Z,75.20
2019-05-03T08:20:11.356Z,74.90
2019-05-03T08:22:41.471Z,77.40
2019-05-03T08:25:11.636Z,74.10
2019-05-03T08:27:41.676Z,75.00
2019-05-03T08:30:14.782Z,73.90
2019-05-03T08:32:55.851Z,72.80
2019-05-03T08:35:39.708Z,72.50
2019-05-03T08:38:09.752Z,74.90
2019-05-03T08:40:41.395Z,72.20
2019-05-03T08:43:15.412Z,73.50
2019-05-03T08:45:45.063Z,71.90
2019-05-03T08:48:15.277Z,71.10
2019-05-03T08:50:46.284Z,72.00
2019-05-03T08:53:16.339Z,72.40
2019-05-03T08:55:46.352Z,72.50
2019-05-03T08:58:16.459Z,70.90
2019-05-03T09:00:47.435Z,72.10
2019-05-03T09:03:17.466Z,69.40
2019-05-03T09:05:47.533Z,69.00
2019-05-03T09:08:18.491Z,69.40
2019-05-03T09:10:54.424Z,70.80
2019-05-03T09:13:25.091Z,72.40
2019-05-03T09:15:55.943Z,71.70
2019-05-03T09:18:26.023Z,72.50
2019-05-03T09:20:55.907Z,73.50
2019-05-03T09:23:26.165Z,70.20
2019-05-03T09:25:56.180Z,70.30
2019-05-03T09:28:29.045Z,70.00
2019-05-03T09:30:57.854Z,68.60
2019-05-03T09:33:27.997Z,67.70
2019-05-03T09:35:58.107Z,67.30
2019-05-03T09:38:28.215Z,68.10
2019-05-03T09:40:58.201Z,69.20
2019-05-03T09:43:28.207Z,71.20
2019-05-03T09:45:58.267Z,69.80
2019-05-03T09:48:28.304Z,69.60
2019-05-03T09:50:58.311Z,68.20
2019-05-03T09:53:35.747Z,68.20
2019-05-03T09:56:05.827Z,68.50
2019-05-03T09:58:38.162Z,67.20
2019-05-03T10:01:08.607Z,68.20
2019-05-03T10:03:37.976Z,67.60
2019-05-03T10:06:07.848Z,68.40
2019-05-03T10:08:37.887Z,67.40
2019-05-03T10:11:10.760Z,68.40
2019-05-03T10:13:41.984Z,70.40
2019-05-03T10:16:15.833Z,72.30
2019-05-03T10:18:45.964Z,75.10
2019-05-03T10:21:15.435Z,75.30
2019-05-03T10:23:45.520Z,75.60
2019-05-03T10:26:15.577Z,75.20
2019-05-03T10:28:45.683Z,73.70
2019-05-03T10:31:15.764Z,72.20
2019-05-03T10:33:47.516Z,73.50
2019-05-03T10:36:17.587Z,75.70
2019-05-03T10:38:48.639Z,73.70
2019-05-03T10:41:18.647Z,74.80
2019-05-03T10:43:48.756Z,73.60
2019-05-03T10:46:18.831Z,74.60
2019-05-03T10:48:48.951Z,71.60
2019-05-03T10:51:19.095Z,75.70
2019-05-03T10:53:50.773Z,73.90
2019-05-03T10:56:26.814Z,71.60
2019-05-03T10:58:58.671Z,70.70
2019-05-03T11:01:30.499Z,71.70
2019-05-03T11:04:00.571Z,69.60
2019-05-03T11:06:30.675Z,65.50
2019-05-03T11:09:02.320Z,67.40
2019-05-03T11:11:35.161Z,65.60
2019-05-03T11:14:05.707Z,63.60
2019-05-03T11:16:35.823Z,65.90
2019-05-03T11:19:05.892Z,65.60
2019-05-03T11:21:35.855Z,64.50
2019-05-03T11:24:05.960Z,64.20
2019-05-03T11:26:37.032Z,65.20
2019-05-03T11:29:07.139Z,61.60
2019-05-03T11:31:47.657Z,59.10
2019-05-03T11:34:22.371Z,60.70
2019-05-03T11:37:04.943Z,60.10
2019-05-03T11:39:35.019Z,59.80
2019-05-03T11:42:05.090Z,59.60
2019-05-03T11:44:38.343Z,61.20
2019-05-03T11:47:09.471Z,59.30
2019-05-03T11:49:39.584Z,62.50
2019-05-03T11:52:10.632Z,57.90
2019-05-03T11:54:40.676Z,56.00
2019-05-03T11:57:12.383Z,55.80
2019-05-03T11:59:42.411Z,56.50
2019-05-03T12:02:15.359Z,58.30
2019-05-03T12:04:45.947Z,58.70
2019-05-03T12:07:18.464Z,54.30
2019-05-03T12:09:48.578Z,56.00
2019-05-03T12:12:26.073Z,55.30
2019-05-03T12:14:56.100Z,51.90
2019-05-03T12:17:29.671Z,52.60
2019-05-03T12:20:00.656Z,53.10
2019-05-03T12:22:32.976Z,53.70
2019-05-03T12:25:10.156Z,50.60
2019-05-03T12:27:37.053Z,51.20
2019-05-03T12:30:08.196Z,50.90
2019-05-03T12:32:38.306Z,51.60
2019-05-03T12:35:08.580Z,52.20
2019-05-03T12:37:38.613Z,53.70
2019-05-03T12:40:10.420Z,51.40
2019-05-03T12:42:40.607Z,51.30
2019-05-03T12:45:10.955Z,50.30
2019-05-03T12:47:41.061Z,49.00
2019-05-03T12:50:12.472Z,49.80
2019-05-03T12:52:49.870Z,48.40
2019-05-03T12:55:15.376Z,48.50
2019-05-03T12:57:46.547Z,49.00
2019-05-03T13:00:27.727Z,49.50
2019-05-03T13:03:02.100Z,49.90
2019-05-03T13:05:32.280Z,47.60
2019-05-03T13:08:23.360Z,49.50
2019-05-03T13:10:55.734Z,51.30
2019-05-03T13:13:25.065Z,51.70
2019-05-03T13:15:55.902Z,51.70
2019-05-03T13:18:25.858Z,51.60
2019-05-03T13:20:55.964Z,52.80
2019-05-03T13:23:26.004Z,53.10
2019-05-03T13:25:56.006Z,52.20
2019-05-03T13:28:26.103Z,52.00
2019-05-03T13:30:57.175Z,52.10
2019-05-03T13:33:27.284Z,52.90
2019-05-03T13:35:57.353Z,54.00
2019-05-03T13:38:27.467Z,54.90
2019-05-03T13:40:57.699Z,54.10
2019-05-03T13:43:27.904Z,54.20
2019-05-03T13:45:57.936Z,57.10
2019-05-03T13:48:41.304Z,59.40
2019-05-03T13:50:59.659Z,62.10
2019-05-03T13:53:29.621Z,62.70
2019-05-03T13:55:59.659Z,66.70
2019-05-03T13:58:29.630Z,67.30
2019-05-03T14:00:59.555Z,69.50
2019-05-03T14:03:30.271Z,70.00
2019-05-03T14:06:00.207Z,69.00
2019-05-03T14:08:30.246Z,67.30
2019-05-03T14:11:00.247Z,67.90
2019-05-03T14:13:30.283Z,68.80
2019-05-03T14:16:00.211Z,66.00
2019-05-03T14:18:30.688Z,65.40
2019-05-03T14:21:05.208Z,64.80
2019-05-03T14:23:36.842Z,64.70
2019-05-03T14:26:06.912Z,64.40
2019-05-03T14:28:36.947Z,62.90
2019-05-03T14:31:07.048Z,62.70
2019-05-03T14:33:37.011Z,61.60
2019-05-03T14:36:06.975Z,60.40
2019-05-03T14:38:36.979Z,59.80
2019-05-03T14:41:07.088Z,59.20
2019-05-03T14:43:37.157Z,59.30
2019-05-03T14:46:07.276Z,57.80
2019-05-03T14:48:37.215Z,53.00
2019-05-03T14:51:07.316Z,49.20
2019-05-03T14:53:37.345Z,49.30
2019-05-03T14:56:11.844Z,46.90
2019-05-03T14:58:56.029Z,46.10
2019-05-03T15:01:36.739Z,46.30
2019-05-03T15:04:06.855Z,47.60
2019-05-03T15:06:36.788Z,50.50
2019-05-03T15:09:07.608Z,51.10
2019-05-03T15:11:37.794Z,52.10
2019-05-03T15:14:07.847Z,50.10
2019-05-03T15:16:37.972Z,49.10
2019-05-03T15:19:08.108Z,45.60
2019-05-03T15:21:38.207Z,45.60
2019-05-03T15:24:08.376Z,44.20
2019-05-03T15:26:38.209Z,41.50
2019-05-03T15:29:08.316Z,43.70
2019-05-03T15:31:38.314Z,41.90
2019-05-03T15:34:08.355Z,41.10
2019-05-03T15:36:38.483Z,43.30
2019-05-03T15:39:08.524Z,47.70
2019-05-03T15:41:38.835Z,49.10
2019-05-03T15:44:22.352Z,49.60
2019-05-03T15:46:56.735Z,49.30
2019-05-03T15:49:27.684Z,49.60
2019-05-03T15:51:57.973Z,49.00
2019-05-03T15:54:27.976Z,47.40
2019-05-03T15:56:58.091Z,46.30
2019-05-03T15:59:29.063Z,45.60
2019-05-03T16:01:59.094Z,45.10
2019-05-03T16:04:29.024Z,43.10
2019-05-03T16:06:59.059Z,41.10
2019-05-03T16:09:29.062Z,40.80
2019-05-03T16:11:59.105Z,38.70
2019-05-03T16:14:29.188Z,38.00
2019-05-03T16:16:59.219Z,38.10
2019-05-03T16:19:29.203Z,37.60
2019-05-03T16:21:59.131Z,38.30
2019-05-03T16:24:29.303Z,37.80
2019-05-03T16:27:05.005Z,38.00
2019-05-03T16:29:35.229Z,39.80
2019-05-03T16:32:05.466Z,42.60
2019-05-03T16:34:35.416Z,44.20
2019-05-03T16:37:06.467Z,44.00
2019-05-03T16:39:36.635Z,44.80
2019-05-03T16:42:08.597Z,44.20
2019-05-03T16:44:40.240Z,44.10
2019-05-03T16:47:11.946Z,45.30
2019-05-03T16:49:42.088Z,47.80
2019-05-03T16:52:14.679Z,47.40
2019-05-03T16:54:45.370Z,47.70
2019-05-03T16:57:17.498Z,48.80
2019-05-03T16:59:47.220Z,49.50
2019-05-03T17:02:17.563Z,48.60
2019-05-03T17:04:49.231Z,50.20
2019-05-03T17:07:36.956Z,51.10
2019-05-03T17:10:18.230Z,53.70
2019-05-03T17:12:48.311Z,55.60
2019-05-03T17:15:21.429Z,55.50
2019-05-03T17:17:52.016Z,55.90
2019-05-03T17:20:25.454Z,57.30
2019-05-03T17:22:56.027Z,57.80
2019-05-03T17:25:28.313Z,58.50
2019-05-03T17:27:58.425Z,58.40
2019-05-03T17:30:34.105Z,60.20
2019-05-03T17:33:02.044Z,60.90
2019-05-03T17:35:32.355Z,61.90
2019-05-03T17:38:02.956Z,61.10
2019-05-03T17:40:49.523Z,61.40
2019-05-03T17:43:26.884Z,62.30
2019-05-03T17:46:01.524Z,63.80
2019-05-03T17:48:31.598Z,65.50
2019-05-03T17:51:01.715Z,66.00
2019-05-03T17:53:37.092Z,66.70
2019-05-03T17:56:08.953Z,67.20
2019-05-03T17:58:40.681Z,67.80
2019-05-03T18:01:14.896Z,68.90
2019-05-03T18:03:46.615Z,69.40
2019-05-03T18:06:21.235Z,69.90
2019-05-03T18:08:55.981Z,70.10
2019-05-03T18:11:27.707Z,70.80
2019-05-03T18:13:57.756Z,70.90
2019-05-03T18:16:27.837Z,71.10
2019-05-03T18:18:57.955Z,70.60
2019-05-03T18:21:27.827Z,70.50
2019-05-03T18:23:57.938Z,71.30
2019-05-03T18:26:27.951Z,71.70
2019-05-03T18:28:57.928Z,71.80
2019-05-03T18:31:28.037Z,71.90
2019-05-03T18:33:58.332Z,72.20
2019-05-03T18:36:28.687Z,72.30
2019-05-03T18:38:58.761Z,72.70
2019-05-03T18:41:28.943Z,73.40
2019-05-03T18:44:06.735Z,74.10
2019-05-03T18:46:38.480Z,73.50
2019-05-03T18:49:08.579Z,73.50
2019-05-03T18:51:38.610Z,73.70
2019-05-03T18:54:08.663Z,74.30
2019-05-03T18:56:38.772Z,72.90
2019-05-03T18:59:08.694Z,72.70
2019-05-03T19:01:38.863Z,72.70
2019-05-03T19:04:10.503Z,73.30
2019-05-03T19:06:40.670Z,72.90
2019-05-03T19:09:30.425Z,72.70
2019-05-03T19:12:05.092Z,72.00
2019-05-03T19:14:35.231Z,72.80
2019-05-03T19:17:18.866Z,72.10
2019-05-03T19:19:56.659Z,71.70
2019-05-03T19:22:26.764Z,71.40
2019-05-03T19:24:56.763Z,71.40
2019-05-03T19:27:26.875Z,71.90
2019-05-03T19:29:56.913Z,71.90
2019-05-03T19:32:28.362Z,72.20
2019-05-03T19:34:58.590Z,71.90
2019-05-03T19:37:28.703Z,71.50
2019-05-03T19:39:58.812Z,71.70
2019-05-03T19:42:29.796Z,71.80
2019-05-03T19:45:05.341Z,72.20
2019-05-03T19:47:55.158Z,72.50
2019-05-03T19:50:27.319Z,72.50
2019-05-03T19:53:23.222Z,72.80
2019-05-03T19:55:55.199Z,72.90
2019-05-03T19:58:27.104Z,73.10
2019-05-03T20:01:05.626Z,73.60
2019-05-03T20:03:50.994Z,73.80
2019-05-03T20:06:25.208Z,74.00
2019-05-03T20:09:05.429Z,74.00
2019-05-03T20:11:35.094Z,75.10
2019-05-03T20:14:08.029Z,74.70
2019-05-03T20:16:41.003Z,74.80
2019-05-03T20:19:18.856Z,75.00
2019-05-03T20:21:45.988Z,75.10
2019-05-03T20:24:25.222Z,75.50
2019-05-03T20:26:51.367Z,75.50
2019-05-03T20:29:21.658Z,75.50
2019-05-03T20:31:55.213Z,75.70
2019-05-03T20:34:24.877Z,75.80
2019-05-03T20:37:09.583Z,76.00
2019-05-03T20:39:43.294Z,76.20
2019-05-03T20:42:41.105Z,75.80
2019-05-03T20:45:29.911Z,76.00
2019-05-03T20:48:06.784Z,76.30
2019-05-03T20:50:40.584Z,76.20
2019-05-03T20:53:10.663Z,76.30
2019-05-03T20:55:40.851Z,76.50
2019-05-03T20:58:11.495Z,77.10
2019-05-03T21:00:45.060Z,77.50
2019-05-03T21:03:17.891Z,76.00
2019-05-03T21:05:49.659Z,75.80
2019-05-03T21:08:20.011Z,75.20
2019-05-03T21:10:50.540Z,74.70
2019-05-03T21:13:20.707Z,74.90
2019-05-03T21:16:01.467Z,75.00
2019-05-03T21:18:45.995Z,74.80
2019-05-03T21:21:20.550Z,74.60
2019-05-03T21:24:10.599Z,74.60
2019-05-03T21:26:48.166Z,74.70
2019-05-03T21:29:18.277Z,74.70
2019-05-03T21:31:48.398Z,75.00
2019-05-03T21:34:18.594Z,77.20
2019-05-03T21:36:48.724Z,78.00
2019-05-03T21:39:18.842Z,78.70
2019-05-03T21:41:51.556Z,78.20
2019-05-03T21:44:31.165Z,78.00
2019-05-03T21:47:17.791Z,77.70
2019-05-03T21:49:52.217Z,78.60
2019-05-03T21:52:22.384Z,79.30
2019-05-03T21:54:54.422Z,78.80
2019-05-03T21:57:25.322Z,79.40
2019-05-03T21:59:56.465Z,80.40
2019-05-03T22:02:26.628Z,82.50
2019-05-03T22:04:56.847Z,82.70
2019-05-03T22:07:26.948Z,82.30
2019-05-03T22:09:57.071Z,81.70
2019-05-03T22:12:27.155Z,81.50
2019-05-03T22:14:58.916Z,81.10
2019-05-03T22:17:47.082Z,81.40
2019-05-03T22:20:39.806Z,81.20
2019-05-03T22:23:27.316Z,81.30
2019-05-03T22:25:57.440Z,81.30
2019-05-03T22:28:29.067Z,81.40
2019-05-03T22:30:59.215Z,81.60
2019-05-03T22:33:29.370Z,81.60
2019-05-03T22:36:08.631Z,81.90
2019-05-03T22:38:36.234Z,81.80
2019-05-03T22:41:05.487Z,81.90
2019-05-03T22:43:34.937Z,82.00
2019-05-03T22:46:05.319Z,81.90
2019-05-03T22:48:35.367Z,81.90
2019-05-03T22:51:05.304Z,81.90
2019-05-03T22:53:35.351Z,81.70
2019-05-03T22:56:05.366Z,82.10
2019-05-03T22:58:35.569Z,82.80
2019-05-03T23:01:05.623Z,83.10
2019-05-03T23:03:37.311Z,83.00
2019-05-03T23:06:18.981Z,82.80
2019-05-03T23:08:38.983Z,82.90
2019-05-03T23:11:09.067Z,82.90
2019-05-03T23:13:39.127Z,83.50
2019-05-03T23:16:09.146Z,83.50
2019-05-03T23:18:39.199Z,83.60
2019-05-03T23:21:10.815Z,83.70
2019-05-03T23:23:50.931Z,83.60
2019-05-03T23:26:21.006Z,84.40
2019-05-03T23:28:51.069Z,84.70
2019-05-03T23:31:21.248Z,84.50
2019-05-03T23:33:54.155Z,85.10
2019-05-03T23:36:33.277Z,85.20
2019-05-03T23:38:55.479Z,84.90
2019-05-03T23:41:25.599Z,84.50
2019-05-03T23:43:55.615Z,84.50
2019-05-03T23:46:27.428Z,84.60
2019-05-03T23:48:57.492Z,85.10
2019-05-03T23:51:45.454Z,85.30
2019-05-03T23:54:15.640Z,85.40
2019-05-03T23:56:46.030Z,85.30
2019-05-03T23:59:16.182Z,85.10
